createdAt,value
2018-09-09T00:00:40.612Z,0
2018-09-09T00:01:50.738Z,0
2018-09-09T00:03:00.033Z,0
2018-09-09T00:04:09.923Z,0
2018-09-09T00:05:19.769Z,0
2018-09-09T00:06:29.069Z,0
2018-09-09T00:07:38.645Z,0
2018-09-09T00:08:48.219Z,0
2018-09-09T00:09:57.257Z,0
2018-09-09T00:11:06.832Z,0
2018-09-09T00:12:16.404Z,0
2018-09-09T00:13:26.241Z,0
2018-09-09T00:14:35.866Z,0
2018-09-09T00:15:45.710Z,0
2018-09-09T00:16:55.557Z,0
2018-09-09T00:18:05.125Z,0
2018-09-09T00:19:14.960Z,0
2018-09-09T00:20:24.282Z,0
2018-09-09T00:21:34.399Z,0
2018-09-09T00:22:43.427Z,0
2018-09-09T00:23:52.729Z,0
2018-09-09T00:25:02.565Z,0
2018-09-09T00:26:12.136Z,0
2018-09-09T00:27:21.978Z,0
2018-09-09T00:28:31.549Z,0
2018-09-09T00:29:41.427Z,0
2018-09-09T00:30:51.002Z,0
2018-09-09T00:32:01.111Z,0
2018-09-09T00:33:11.228Z,0
2018-09-09T00:34:20.848Z,0
2018-09-09T00:35:30.736Z,0
2018-09-09T00:36:40.865Z,0
2018-09-09T00:37:50.431Z,0
2018-09-09T00:39:00.280Z,0
2018-09-09T00:40:10.176Z,0
2018-09-09T00:41:20.032Z,0
2018-09-09T00:42:29.908Z,0
2018-09-09T00:43:40.060Z,0
2018-09-09T00:44:49.627Z,0
2018-09-09T00:45:59.519Z,0
2018-09-09T00:47:08.550Z,0
2018-09-09T00:48:18.400Z,0
2018-09-09T00:49:28.200Z,0
2018-09-09T00:50:37.772Z,0
2018-09-09T00:51:47.662Z,0
2018-09-09T00:52:57.516Z,0
2018-09-09T00:54:07.631Z,0
2018-09-09T00:55:17.746Z,0
2018-09-09T00:56:27.860Z,0
2018-09-09T00:57:37.701Z,0
2018-09-09T00:58:47.542Z,0
2018-09-09T00:59:57.694Z,0
2018-09-09T01:01:07.000Z,0
2018-09-09T01:02:16.578Z,0
2018-09-09T01:03:26.415Z,0
2018-09-09T01:04:35.728Z,0
2018-09-09T01:05:45.569Z,0
2018-09-09T01:06:54.871Z,0
2018-09-09T01:08:04.720Z,0
2018-09-09T01:09:14.609Z,0
2018-09-09T01:10:24.182Z,0
2018-09-09T01:11:34.305Z,0
2018-09-09T01:12:43.873Z,0
2018-09-09T01:13:53.447Z,0
2018-09-09T01:15:03.287Z,0
2018-09-09T01:16:12.863Z,0
2018-09-09T01:17:22.976Z,0
2018-09-09T01:18:32.820Z,0
2018-09-09T01:19:42.929Z,0
2018-09-09T01:20:52.819Z,0
2018-09-09T01:22:02.394Z,0
2018-09-09T01:23:12.505Z,0
2018-09-09T01:24:21.812Z,0
2018-09-09T01:25:31.090Z,0
2018-09-09T01:26:40.923Z,0
2018-09-09T01:27:50.488Z,0
2018-09-09T01:29:00.356Z,0
2018-09-09T01:30:09.927Z,0
2018-09-09T01:31:19.230Z,0
2018-09-09T01:32:29.067Z,0
2018-09-09T01:33:39.182Z,0
2018-09-09T01:34:48.752Z,0
2018-09-09T01:35:58.329Z,0
2018-09-09T01:37:08.177Z,0
2018-09-09T01:38:17.202Z,0
2018-09-09T01:39:27.316Z,0
2018-09-09T01:40:37.172Z,0
2018-09-09T01:41:46.479Z,0
2018-09-09T01:42:55.791Z,0
2018-09-09T01:44:05.911Z,0
2018-09-09T01:45:15.491Z,0
2018-09-09T01:46:25.612Z,0
2018-09-09T01:47:35.180Z,0
2018-09-09T01:48:44.755Z,0
2018-09-09T01:49:54.083Z,0
2018-09-09T01:51:03.657Z,0
2018-09-09T01:52:12.960Z,0
2018-09-09T01:53:22.803Z,0
2018-09-09T01:54:32.375Z,0
2018-09-09T01:55:42.212Z,0
2018-09-09T01:56:51.530Z,0
2018-09-09T01:58:01.101Z,0
2018-09-09T01:59:10.945Z,0
2018-09-09T02:00:20.782Z,0
2018-09-09T02:01:30.421Z,0
2018-09-09T02:02:40.289Z,0
2018-09-09T02:03:50.399Z,0
2018-09-09T02:05:00.274Z,0
2018-09-09T02:06:10.384Z,0
2018-09-09T02:07:20.271Z,0
2018-09-09T02:08:29.576Z,0
2018-09-09T02:09:39.204Z,0
2018-09-09T02:10:48.773Z,0
2018-09-09T02:11:58.341Z,0
2018-09-09T02:13:07.909Z,0
2018-09-09T02:14:17.752Z,0
2018-09-09T02:15:27.336Z,0
2018-09-09T02:16:36.912Z,0
2018-09-09T02:17:46.750Z,0
2018-09-09T02:18:56.289Z,0
2018-09-09T02:20:06.394Z,0
2018-09-09T02:21:16.244Z,0
2018-09-09T02:22:26.079Z,0
2018-09-09T02:23:35.378Z,0
2018-09-09T02:24:45.227Z,0
2018-09-09T02:25:55.052Z,0
2018-09-09T02:27:05.309Z,0
2018-09-09T02:28:15.167Z,0
2018-09-09T02:29:25.010Z,0
2018-09-09T02:30:34.586Z,0
2018-09-09T02:31:44.161Z,0
2018-09-09T02:32:53.199Z,0
2018-09-09T02:34:03.310Z,0
2018-09-09T02:35:13.422Z,0
2018-09-09T02:36:23.004Z,0
2018-09-09T02:37:33.131Z,0
2018-09-09T02:38:42.438Z,0
2018-09-09T02:39:52.011Z,0
2018-09-09T02:41:01.581Z,0
2018-09-09T02:42:11.183Z,0
2018-09-09T02:43:21.018Z,0
2018-09-09T02:44:30.591Z,0
2018-09-09T02:45:39.886Z,0
2018-09-09T02:46:50.045Z,0
2018-09-09T02:47:59.899Z,0
2018-09-09T02:49:09.473Z,0
2018-09-09T02:50:18.510Z,0
2018-09-09T02:51:28.361Z,0
2018-09-09T02:52:37.931Z,0
2018-09-09T02:53:47.804Z,0
2018-09-09T02:54:57.655Z,0
2018-09-09T02:56:07.822Z,0
2018-09-09T02:57:17.390Z,0
2018-09-09T02:58:27.227Z,0
2018-09-09T02:59:37.386Z,0
2018-09-09T03:00:47.232Z,0
2018-09-09T03:01:57.367Z,0
2018-09-09T03:03:07.482Z,0
2018-09-09T03:04:17.320Z,0
2018-09-09T03:05:27.162Z,0
2018-09-09T03:06:36.998Z,0
2018-09-09T03:07:46.844Z,0
2018-09-09T03:08:56.970Z,0
2018-09-09T03:10:06.563Z,0
2018-09-09T03:11:16.671Z,0
2018-09-09T03:12:26.511Z,0
2018-09-09T03:13:35.819Z,0
2018-09-09T03:14:45.926Z,0
2018-09-09T03:15:56.038Z,0
2018-09-09T03:17:05.653Z,0
2018-09-09T03:18:15.510Z,0
2018-09-09T03:19:25.079Z,0
2018-09-09T03:20:35.208Z,0
2018-09-09T03:21:45.067Z,0
2018-09-09T03:22:54.913Z,0
2018-09-09T03:24:04.767Z,0
2018-09-09T03:25:14.606Z,0
2018-09-09T03:26:24.194Z,0
2018-09-09T03:27:33.495Z,0
2018-09-09T03:28:44.018Z,0
2018-09-09T03:29:53.869Z,0
2018-09-09T03:31:04.000Z,0
2018-09-09T03:32:14.130Z,0
2018-09-09T03:33:24.480Z,0
2018-09-09T03:34:34.587Z,0
2018-09-09T03:35:43.923Z,0
2018-09-09T03:36:54.040Z,0
2018-09-09T03:38:03.608Z,0
2018-09-09T03:39:13.449Z,0
2018-09-09T03:40:23.572Z,0
2018-09-09T03:41:32.875Z,0
2018-09-09T03:42:42.994Z,0
2018-09-09T03:43:52.864Z,0
2018-09-09T03:45:02.441Z,0
2018-09-09T03:46:12.009Z,0
2018-09-09T03:47:21.310Z,0
2018-09-09T03:48:31.419Z,0
2018-09-09T03:49:41.262Z,0
2018-09-09T03:50:50.834Z,0
2018-09-09T03:52:00.156Z,0
2018-09-09T03:53:09.455Z,0
2018-09-09T03:54:19.573Z,0
2018-09-09T03:55:28.884Z,0
2018-09-09T03:56:38.813Z,0
2018-09-09T03:57:48.652Z,0
2018-09-09T03:58:58.218Z,0
2018-09-09T04:00:08.069Z,0
2018-09-09T04:01:17.640Z,0
2018-09-09T04:02:27.742Z,0
2018-09-09T04:03:37.854Z,0
2018-09-09T04:04:47.700Z,0
2018-09-09T04:05:56.731Z,0
2018-09-09T04:07:06.575Z,0
2018-09-09T04:08:15.876Z,0
2018-09-09T04:09:25.712Z,0
2018-09-09T04:10:35.354Z,0
2018-09-09T04:11:45.202Z,0
2018-09-09T04:12:55.045Z,0
2018-09-09T04:14:04.936Z,0
2018-09-09T04:15:15.051Z,0
2018-09-09T04:16:24.894Z,0
2018-09-09T04:17:34.481Z,0
2018-09-09T04:18:44.317Z,0
2018-09-09T04:19:53.887Z,0
2018-09-09T04:21:04.043Z,0
2018-09-09T04:22:13.613Z,0
2018-09-09T04:23:22.641Z,0
2018-09-09T04:24:32.207Z,0
2018-09-09T04:25:42.339Z,0
2018-09-09T04:26:52.453Z,0
2018-09-09T04:28:02.588Z,0
2018-09-09T04:29:12.434Z,0
2018-09-09T04:30:22.540Z,0
2018-09-09T04:31:32.154Z,0
2018-09-09T04:32:41.723Z,0
2018-09-09T04:33:51.832Z,0
2018-09-09T04:35:01.671Z,0
2018-09-09T04:36:10.985Z,0
2018-09-09T04:37:20.843Z,0
2018-09-09T04:38:30.408Z,0
2018-09-09T04:39:39.987Z,0
2018-09-09T04:40:50.096Z,0
2018-09-09T04:41:59.944Z,0
2018-09-09T04:43:08.975Z,0
2018-09-09T04:44:18.275Z,0
2018-09-09T04:45:28.124Z,0
2018-09-09T04:46:37.839Z,5
2018-09-09T04:47:47.690Z,5
2018-09-09T04:48:57.532Z,5
2018-09-09T04:50:07.647Z,5
2018-09-09T04:51:17.499Z,5
2018-09-09T04:52:27.343Z,5
2018-09-09T04:53:37.197Z,5
2018-09-09T04:54:47.043Z,5
2018-09-09T04:55:56.890Z,10
2018-09-09T04:57:06.731Z,10
2018-09-09T04:58:16.577Z,10
2018-09-09T04:59:26.204Z,10
2018-09-09T05:00:36.306Z,10
2018-09-09T05:01:46.418Z,10
2018-09-09T05:02:56.543Z,15
2018-09-09T05:04:06.394Z,15
2018-09-09T05:05:16.238Z,15
2018-09-09T05:06:25.812Z,15
2018-09-09T05:07:35.667Z,15
2018-09-09T05:08:45.777Z,20
2018-09-09T05:09:55.080Z,20
2018-09-09T05:11:05.197Z,20
2018-09-09T05:12:14.771Z,20
2018-09-09T05:13:24.615Z,20
2018-09-09T05:14:34.183Z,25
2018-09-09T05:15:44.300Z,25
2018-09-09T05:16:53.870Z,25
2018-09-09T05:18:03.443Z,30
2018-09-09T05:19:13.556Z,30
2018-09-09T05:20:23.128Z,35
2018-09-09T05:21:33.240Z,35
2018-09-09T05:22:43.075Z,40
2018-09-09T05:23:53.187Z,40
2018-09-09T05:25:03.093Z,45
2018-09-09T05:26:13.200Z,45
2018-09-09T05:27:23.320Z,45
2018-09-09T05:28:32.886Z,50
2018-09-09T05:29:42.726Z,50
2018-09-09T05:30:52.576Z,55
2018-09-09T05:32:02.704Z,55
2018-09-09T05:33:12.822Z,60
2018-09-09T05:34:22.936Z,60
2018-09-09T05:35:32.510Z,65
2018-09-09T05:36:42.351Z,65
2018-09-09T05:37:51.920Z,65
2018-09-09T05:39:02.028Z,65
2018-09-09T05:40:11.872Z,65
2018-09-09T05:41:21.441Z,65
2018-09-09T05:42:31.621Z,70
2018-09-09T05:43:41.734Z,70
2018-09-09T05:44:51.992Z,70
2018-09-09T05:46:01.526Z,70
2018-09-09T05:47:11.101Z,70
2018-09-09T05:48:20.950Z,70
2018-09-09T05:49:30.796Z,75
2018-09-09T05:50:40.365Z,75
2018-09-09T05:51:50.183Z,80
2018-09-09T05:53:00.025Z,85
2018-09-09T05:54:10.273Z,85
2018-09-09T05:55:20.416Z,90
2018-09-09T05:56:29.994Z,90
2018-09-09T05:57:39.375Z,95
2018-09-09T05:58:49.187Z,100
2018-09-09T05:59:59.073Z,105
2018-09-09T06:01:08.987Z,105
2018-09-09T06:02:19.102Z,110
2018-09-09T06:03:28.672Z,110
2018-09-09T06:04:38.241Z,115
2018-09-09T06:05:48.082Z,110
2018-09-09T06:06:57.673Z,110
2018-09-09T06:08:07.547Z,105
2018-09-09T06:09:17.391Z,100
2018-09-09T06:10:27.231Z,95
2018-09-09T06:11:37.082Z,95
2018-09-09T06:12:46.659Z,90
2018-09-09T06:13:56.500Z,85
2018-09-09T06:15:06.614Z,85
2018-09-09T06:16:16.455Z,85
2018-09-09T06:17:25.689Z,85
2018-09-09T06:18:35.816Z,85
2018-09-09T06:19:45.383Z,85
2018-09-09T06:20:55.509Z,85
2018-09-09T06:22:05.081Z,85
2018-09-09T06:23:14.654Z,85
2018-09-09T06:24:24.969Z,90
2018-09-09T06:25:34.539Z,95
2018-09-09T06:26:44.110Z,105
2018-09-09T06:27:53.680Z,110
2018-09-09T06:29:03.040Z,115
2018-09-09T06:30:12.881Z,120
2018-09-09T06:31:22.982Z,125
2018-09-09T06:32:33.093Z,125
2018-09-09T06:33:43.637Z,125
2018-09-09T06:34:53.772Z,120
2018-09-09T06:36:03.346Z,120
2018-09-09T06:37:12.403Z,125
2018-09-09T06:38:22.290Z,125
2018-09-09T06:39:31.600Z,125
2018-09-09T06:40:41.443Z,130
2018-09-09T06:41:51.564Z,135
2018-09-09T06:43:01.145Z,135
2018-09-09T06:44:10.990Z,140
2018-09-09T06:45:20.868Z,145
2018-09-09T06:46:31.262Z,150
2018-09-09T06:47:41.459Z,150
2018-09-09T06:48:51.040Z,155
2018-09-09T06:50:00.342Z,155
2018-09-09T06:51:09.706Z,160
2018-09-09T06:52:19.895Z,165
2018-09-09T06:53:29.743Z,165
2018-09-09T06:54:39.580Z,160
2018-09-09T06:55:49.425Z,160
2018-09-09T06:56:58.725Z,155
2018-09-09T06:58:08.349Z,160
2018-09-09T06:59:17.932Z,160
2018-09-09T07:00:27.775Z,165
2018-09-09T07:01:37.351Z,170
2018-09-09T07:02:46.918Z,170
2018-09-09T07:03:56.548Z,165
2018-09-09T07:05:06.690Z,165
2018-09-09T07:06:16.800Z,160
2018-09-09T07:07:25.828Z,160
2018-09-09T07:08:35.672Z,160
2018-09-09T07:09:45.507Z,155
2018-09-09T07:10:55.460Z,150
2018-09-09T07:12:06.667Z,155
2018-09-09T07:13:16.112Z,155
2018-09-09T07:14:25.687Z,160
2018-09-09T07:15:35.587Z,155
2018-09-09T07:16:45.430Z,150
2018-09-09T07:17:55.539Z,160
2018-09-09T07:19:05.541Z,165
2018-09-09T07:20:15.441Z,175
2018-09-09T07:21:25.016Z,175
2018-09-09T07:22:34.970Z,175
2018-09-09T07:23:44.601Z,175
2018-09-09T07:24:54.449Z,175
2018-09-09T07:26:04.024Z,175
2018-09-09T07:27:13.598Z,180
2018-09-09T07:28:23.767Z,180
2018-09-09T07:29:33.650Z,180
2018-09-09T07:30:43.220Z,180
2018-09-09T07:31:52.795Z,185
2018-09-09T07:33:02.369Z,190
2018-09-09T07:34:12.382Z,200
2018-09-09T07:35:22.235Z,205
2018-09-09T07:36:31.805Z,210
2018-09-09T07:37:41.190Z,210
2018-09-09T07:38:51.031Z,215
2018-09-09T07:40:00.905Z,210
2018-09-09T07:41:10.502Z,210
2018-09-09T07:42:20.340Z,210
2018-09-09T07:43:30.172Z,210
2018-09-09T07:44:40.008Z,210
2018-09-09T07:45:49.311Z,220
2018-09-09T07:46:59.424Z,230
2018-09-09T07:48:09.290Z,245
2018-09-09T07:49:18.864Z,250
2018-09-09T07:50:28.720Z,260
2018-09-09T07:51:38.308Z,265
2018-09-09T07:52:48.157Z,275
2018-09-09T07:53:57.828Z,285
2018-09-09T07:55:07.405Z,290
2018-09-09T07:56:17.273Z,295
2018-09-09T07:57:26.880Z,295
2018-09-09T07:58:36.984Z,300
2018-09-09T07:59:46.286Z,295
2018-09-09T08:00:56.398Z,300
2018-09-09T08:02:06.246Z,290
2018-09-09T08:03:15.817Z,295
2018-09-09T08:04:25.930Z,290
2018-09-09T08:05:35.768Z,290
2018-09-09T08:06:45.611Z,285
2018-09-09T08:07:55.178Z,275
2018-09-09T08:09:05.024Z,270
2018-09-09T08:10:15.138Z,265
2018-09-09T08:11:25.263Z,250
2018-09-09T08:12:35.388Z,240
2018-09-09T08:13:44.969Z,230
2018-09-09T08:14:54.806Z,215
2018-09-09T08:16:04.388Z,210
2018-09-09T08:17:13.963Z,200
2018-09-09T08:18:23.758Z,200
2018-09-09T08:19:33.121Z,195
2018-09-09T08:20:42.694Z,190
2018-09-09T08:21:52.003Z,190
2018-09-09T08:23:01.577Z,190
2018-09-09T08:24:11.154Z,200
2018-09-09T08:25:21.006Z,205
2018-09-09T08:26:30.586Z,210
2018-09-09T08:27:40.457Z,220
2018-09-09T08:28:50.307Z,235
2018-09-09T08:29:59.876Z,240
2018-09-09T08:31:09.728Z,255
2018-09-09T08:32:19.838Z,270
2018-09-09T08:33:29.951Z,285
2018-09-09T08:34:39.836Z,290
2018-09-09T08:35:49.415Z,300
2018-09-09T08:36:59.523Z,300
2018-09-09T08:38:09.098Z,310
2018-09-09T08:39:18.409Z,315
2018-09-09T08:40:27.986Z,330
2018-09-09T08:41:37.829Z,345
2018-09-09T08:42:47.950Z,365
2018-09-09T08:43:57.765Z,395
2018-09-09T08:45:07.895Z,420
2018-09-09T08:46:17.790Z,430
2018-09-09T08:47:27.637Z,440
2018-09-09T08:48:37.482Z,415
2018-09-09T08:49:47.321Z,395
2018-09-09T08:50:56.891Z,370
2018-09-09T08:52:07.845Z,355
2018-09-09T08:53:17.480Z,325
2018-09-09T08:54:27.050Z,310
2018-09-09T08:55:37.248Z,305
2018-09-09T08:56:47.090Z,300
2018-09-09T08:57:56.929Z,330
2018-09-09T08:59:06.772Z,315
2018-09-09T09:00:15.809Z,320
2018-09-09T09:01:25.381Z,305
2018-09-09T09:02:34.683Z,290
2018-09-09T09:03:44.045Z,270
2018-09-09T09:04:53.347Z,245
2018-09-09T09:06:03.394Z,230
2018-09-09T09:07:12.964Z,220
2018-09-09T09:08:23.191Z,210
2018-09-09T09:09:32.769Z,205
2018-09-09T09:10:42.914Z,200
2018-09-09T09:11:52.223Z,195
2018-09-09T09:13:02.063Z,195
2018-09-09T09:14:11.362Z,185
2018-09-09T09:15:20.987Z,190
2018-09-09T09:16:30.564Z,200
2018-09-09T09:17:40.148Z,205
2018-09-09T09:18:50.124Z,215
2018-09-09T09:20:00.248Z,225
2018-09-09T09:21:09.837Z,240
2018-09-09T09:22:19.981Z,270
2018-09-09T09:23:30.167Z,295
2018-09-09T09:24:40.296Z,295
2018-09-09T09:25:50.142Z,310
2018-09-09T09:26:59.448Z,315
2018-09-09T09:28:09.019Z,310
2018-09-09T09:29:19.130Z,325
2018-09-09T09:30:28.713Z,340
2018-09-09T09:31:38.564Z,325
2018-09-09T09:32:48.650Z,335
2018-09-09T09:33:58.763Z,325
2018-09-09T09:35:09.111Z,340
2018-09-09T09:36:19.237Z,380
2018-09-09T09:37:28.809Z,430
2018-09-09T09:38:38.409Z,445
2018-09-09T09:39:47.991Z,460
2018-09-09T09:40:57.843Z,460
2018-09-09T09:42:07.437Z,465
2018-09-09T09:43:17.288Z,470
2018-09-09T09:44:27.405Z,440
2018-09-09T09:45:37.527Z,410
2018-09-09T09:46:47.369Z,405
2018-09-09T09:47:57.223Z,390
2018-09-09T09:49:07.067Z,385
2018-09-09T09:50:16.948Z,355
2018-09-09T09:51:26.521Z,325
2018-09-09T09:52:36.629Z,325
2018-09-09T09:53:47.020Z,270
2018-09-09T09:54:56.354Z,230
2018-09-09T09:56:05.899Z,240
2018-09-09T09:57:16.012Z,205
2018-09-09T09:58:25.581Z,205
2018-09-09T09:59:35.157Z,205
2018-09-09T10:00:45.276Z,200
2018-09-09T10:01:54.847Z,195
2018-09-09T10:03:04.426Z,200
2018-09-09T10:04:13.732Z,200
2018-09-09T10:05:23.250Z,200
2018-09-09T10:06:33.098Z,200
2018-09-09T10:07:42.668Z,200
2018-09-09T10:08:52.820Z,200
2018-09-09T10:10:02.723Z,200
2018-09-09T10:11:12.841Z,200
2018-09-09T10:12:22.685Z,200
2018-09-09T10:13:32.259Z,200
2018-09-09T10:14:42.395Z,200
2018-09-09T10:15:51.968Z,200
2018-09-09T10:17:01.799Z,200
2018-09-09T10:18:11.575Z,205
2018-09-09T10:19:21.416Z,205
2018-09-09T10:20:30.728Z,205
2018-09-09T10:21:40.849Z,205
2018-09-09T10:22:50.421Z,205
2018-09-09T10:24:00.679Z,205
2018-09-09T10:25:10.263Z,210
2018-09-09T10:26:20.082Z,210
2018-09-09T10:27:29.931Z,210
2018-09-09T10:28:39.775Z,210
2018-09-09T10:29:49.078Z,210
2018-09-09T10:30:58.698Z,210
2018-09-09T10:32:08.814Z,210
2018-09-09T10:33:17.851Z,210
2018-09-09T10:34:27.689Z,210
2018-09-09T10:35:37.263Z,215
2018-09-09T10:36:46.835Z,210
2018-09-09T10:37:56.135Z,210
2018-09-09T10:39:05.995Z,210
2018-09-09T10:40:15.350Z,215
2018-09-09T10:41:24.924Z,215
2018-09-09T10:42:34.828Z,220
2018-09-09T10:43:44.671Z,225
2018-09-09T10:44:54.750Z,220
2018-09-09T10:46:04.520Z,220
2018-09-09T10:47:14.960Z,215
2018-09-09T10:48:25.073Z,215
2018-09-09T10:49:35.194Z,215
2018-09-09T10:50:45.311Z,220
2018-09-09T10:51:54.616Z,215
2018-09-09T10:53:04.595Z,215
2018-09-09T10:54:14.710Z,220
2018-09-09T10:55:24.287Z,220
2018-09-09T10:56:34.404Z,225
2018-09-09T10:57:43.982Z,225
2018-09-09T10:58:54.613Z,220
2018-09-09T11:00:03.548Z,225
2018-09-09T11:01:13.633Z,225
2018-09-09T11:02:23.744Z,220
2018-09-09T11:03:33.051Z,220
2018-09-09T11:04:42.624Z,220
2018-09-09T11:05:51.657Z,220
2018-09-09T11:07:02.016Z,220
2018-09-09T11:08:10.739Z,220
2018-09-09T11:09:20.328Z,220
2018-09-09T11:10:30.444Z,220
2018-09-09T11:11:40.019Z,220
2018-09-09T11:12:50.575Z,225
2018-09-09T11:13:59.556Z,230
2018-09-09T11:15:09.408Z,230
2018-09-09T11:16:19.244Z,230
2018-09-09T11:17:29.085Z,230
2018-09-09T11:18:38.663Z,235
2018-09-09T11:19:48.780Z,240
2018-09-09T11:20:58.362Z,245
2018-09-09T11:22:07.932Z,250
2018-09-09T11:23:17.834Z,250
2018-09-09T11:24:27.236Z,255
2018-09-09T11:25:37.172Z,250
2018-09-09T11:26:47.013Z,255
2018-09-09T11:27:56.632Z,260
2018-09-09T11:29:06.211Z,265
2018-09-09T11:30:16.329Z,270
2018-09-09T11:31:26.204Z,270
2018-09-09T11:32:36.060Z,270
2018-09-09T11:33:45.903Z,270
2018-09-09T11:34:56.018Z,270
2018-09-09T11:36:05.614Z,275
2018-09-09T11:37:15.191Z,275
2018-09-09T11:38:24.764Z,305
2018-09-09T11:39:34.338Z,320
2018-09-09T11:40:43.863Z,320
2018-09-09T11:41:53.521Z,320
2018-09-09T11:43:03.377Z,320
2018-09-09T11:44:13.218Z,325
2018-09-09T11:45:23.076Z,360
2018-09-09T11:46:33.189Z,395
2018-09-09T11:47:42.773Z,415
2018-09-09T11:48:52.888Z,435
2018-09-09T11:50:02.479Z,430
2018-09-09T11:51:12.061Z,570
2018-09-09T11:52:21.638Z,605
2018-09-09T11:53:31.479Z,1425
2018-09-09T11:54:41.324Z,1920
2018-09-09T11:55:50.901Z,1700
2018-09-09T11:57:00.762Z,1510
2018-09-09T11:58:10.336Z,1275
2018-09-09T11:59:19.646Z,1125
2018-09-09T12:00:29.253Z,325
2018-09-09T12:01:38.557Z,435
2018-09-09T12:02:48.402Z,450
2018-09-09T12:03:58.526Z,430
2018-09-09T12:05:08.643Z,420
2018-09-09T12:06:18.249Z,370
2018-09-09T12:07:28.535Z,420
2018-09-09T12:08:38.112Z,555
2018-09-09T12:09:48.230Z,725
2018-09-09T12:10:58.102Z,1195
2018-09-09T12:12:07.416Z,1160
2018-09-09T12:13:17.265Z,710
2018-09-09T12:14:26.854Z,610
2018-09-09T12:15:36.434Z,570
2018-09-09T12:16:46.302Z,540
2018-09-09T12:17:56.153Z,680
2018-09-09T12:19:05.463Z,460
2018-09-09T12:20:15.314Z,720
2018-09-09T12:21:25.163Z,520
2018-09-09T12:22:34.470Z,525
2018-09-09T12:23:44.555Z,530
2018-09-09T12:24:54.131Z,505
2018-09-09T12:26:03.981Z,495
2018-09-09T12:27:13.832Z,510
2018-09-09T12:28:22.599Z,620
2018-09-09T12:29:32.714Z,610
2018-09-09T12:30:42.835Z,630
2018-09-09T12:31:52.958Z,635
2018-09-09T12:33:02.266Z,600
2018-09-09T12:34:12.165Z,615
2018-09-09T12:35:22.288Z,655
2018-09-09T12:36:32.134Z,655
2018-09-09T12:37:42.130Z,670
2018-09-09T12:38:51.720Z,660
2018-09-09T12:40:01.298Z,655
2018-09-09T12:41:11.148Z,640
2018-09-09T12:42:21.262Z,620
2018-09-09T12:43:30.835Z,590
2018-09-09T12:44:40.689Z,560
2018-09-09T12:45:50.281Z,570
2018-09-09T12:47:00.137Z,590
2018-09-09T12:48:09.775Z,610
2018-09-09T12:49:19.682Z,615
2018-09-09T12:50:29.253Z,630
2018-09-09T12:51:39.114Z,635
2018-09-09T12:52:49.244Z,645
2018-09-09T12:53:59.360Z,665
2018-09-09T12:55:08.995Z,685
2018-09-09T12:56:19.115Z,670
2018-09-09T12:57:28.693Z,685
2018-09-09T12:58:37.733Z,710
2018-09-09T12:59:47.043Z,750
2018-09-09T13:00:56.899Z,775
2018-09-09T13:02:06.746Z,800
2018-09-09T13:03:16.102Z,815
2018-09-09T13:04:25.955Z,835
2018-09-09T13:05:36.085Z,840
2018-09-09T13:06:45.395Z,840
2018-09-09T13:07:55.004Z,840
2018-09-09T13:09:05.121Z,840
2018-09-09T13:10:15.195Z,845
2018-09-09T13:11:25.051Z,875
2018-09-09T13:12:35.098Z,960
2018-09-09T13:13:44.940Z,1055
2018-09-09T13:14:55.058Z,1080
2018-09-09T13:16:04.634Z,1120
2018-09-09T13:17:14.753Z,1055
2018-09-09T13:18:24.604Z,1025
2018-09-09T13:19:34.186Z,1015
2018-09-09T13:20:44.037Z,1010
2018-09-09T13:21:53.880Z,980
2018-09-09T13:23:03.729Z,960
2018-09-09T13:24:13.331Z,965
2018-09-09T13:25:23.453Z,955
2018-09-09T13:26:33.343Z,970
2018-09-09T13:27:43.210Z,980
2018-09-09T13:28:53.092Z,980
2018-09-09T13:30:03.229Z,995
2018-09-09T13:31:13.353Z,1005
2018-09-09T13:32:22.943Z,1030
2018-09-09T13:33:32.797Z,1045
2018-09-09T13:34:42.644Z,1035
2018-09-09T13:35:52.227Z,1030
2018-09-09T13:37:02.344Z,1035
2018-09-09T13:38:12.195Z,1050
2018-09-09T13:39:22.308Z,1135
2018-09-09T13:40:32.156Z,1225
2018-09-09T13:41:42.322Z,1150
2018-09-09T13:42:52.192Z,1860
2018-09-09T13:44:02.312Z,1250
2018-09-09T13:45:11.903Z,1150
2018-09-09T13:46:21.750Z,1270
2018-09-09T13:47:31.869Z,1130
2018-09-09T13:48:41.868Z,925
2018-09-09T13:49:51.711Z,915
2018-09-09T13:51:01.023Z,900
2018-09-09T13:52:10.611Z,980
2018-09-09T13:53:20.515Z,1000
2018-09-09T13:54:30.096Z,840
2018-09-09T13:55:40.225Z,895
2018-09-09T13:56:49.813Z,950
2018-09-09T13:57:59.124Z,950
2018-09-09T13:59:08.978Z,1085
2018-09-09T14:00:18.566Z,1005
2018-09-09T14:01:28.687Z,1115
2018-09-09T14:02:37.997Z,1095
2018-09-09T14:03:47.665Z,1100
2018-09-09T14:04:57.878Z,1135
2018-09-09T14:06:07.999Z,1090
2018-09-09T14:07:17.856Z,1225
2018-09-09T14:08:27.737Z,855
2018-09-09T14:09:38.196Z,720
2018-09-09T14:10:48.164Z,705
2018-09-09T14:11:58.281Z,935
2018-09-09T14:13:07.859Z,1380
2018-09-09T14:14:17.169Z,670
2018-09-09T14:15:27.186Z,655
2018-09-09T14:16:37.082Z,1490
2018-09-09T14:17:46.666Z,3060
2018-09-09T14:18:56.241Z,3465
2018-09-09T14:20:05.857Z,3380
2018-09-09T14:21:15.186Z,3530
2018-09-09T14:22:25.579Z,3360
2018-09-09T14:23:35.456Z,3715
2018-09-09T14:24:45.304Z,3255
2018-09-09T14:25:54.894Z,2910
2018-09-09T14:27:04.217Z,3140
2018-09-09T14:28:14.078Z,3400
2018-09-09T14:29:24.349Z,3465
2018-09-09T14:30:34.567Z,3385
2018-09-09T14:31:44.699Z,3295
2018-09-09T14:32:54.553Z,3160
2018-09-09T14:34:04.426Z,3135
2018-09-09T14:35:14.018Z,3340
2018-09-09T14:36:23.882Z,3665
2018-09-09T14:37:34.045Z,3475
2018-09-09T14:38:43.903Z,3280
2018-09-09T14:39:53.220Z,3385
2018-09-09T14:41:03.081Z,3865
2018-09-09T14:42:13.209Z,3575
2018-09-09T14:43:23.066Z,3335
2018-09-09T14:44:32.958Z,2470
2018-09-09T14:45:42.810Z,1605
2018-09-09T14:46:52.941Z,830
2018-09-09T14:48:02.795Z,890
2018-09-09T14:49:12.925Z,2325
2018-09-09T14:50:22.793Z,3170
2018-09-09T14:51:32.109Z,1695
2018-09-09T14:52:42.242Z,1025
2018-09-09T14:53:52.096Z,785
2018-09-09T14:55:01.962Z,705
2018-09-09T14:56:10.737Z,875
2018-09-09T14:57:20.852Z,595
2018-09-09T14:58:30.704Z,505
2018-09-09T14:59:40.025Z,450
2018-09-09T15:00:49.609Z,410
2018-09-09T15:01:59.735Z,325
2018-09-09T15:03:09.591Z,310
2018-09-09T15:04:19.446Z,395
2018-09-09T15:05:29.299Z,545
2018-09-09T15:06:38.882Z,645
2018-09-09T15:07:48.736Z,370
2018-09-09T15:08:58.588Z,355
2018-09-09T15:10:08.459Z,355
2018-09-09T15:11:18.049Z,540
2018-09-09T15:12:27.926Z,1155
2018-09-09T15:13:37.778Z,1685
2018-09-09T15:14:47.359Z,2540
2018-09-09T15:15:57.508Z,2765
2018-09-09T15:17:07.371Z,3115
2018-09-09T15:18:17.493Z,3320
2018-09-09T15:19:27.636Z,3120
2018-09-09T15:20:37.241Z,3030
2018-09-09T15:21:47.412Z,3285
2018-09-09T15:22:56.726Z,2180
2018-09-09T15:24:06.613Z,1020
2018-09-09T15:25:16.735Z,935
2018-09-09T15:26:26.597Z,1215
2018-09-09T15:27:36.457Z,1075
2018-09-09T15:28:46.883Z,2530
2018-09-09T15:29:56.408Z,3210
2018-09-09T15:31:06.006Z,3180
2018-09-09T15:32:15.326Z,1930
2018-09-09T15:33:24.910Z,2470
2018-09-09T15:34:34.351Z,3160
2018-09-09T15:35:44.209Z,620
2018-09-09T15:36:54.078Z,790
2018-09-09T15:38:03.670Z,585
2018-09-09T15:39:12.985Z,515
2018-09-09T15:40:22.583Z,455
2018-09-09T15:41:32.709Z,430
2018-09-09T15:42:42.073Z,415
2018-09-09T15:43:51.658Z,405
2018-09-09T15:45:00.718Z,390
2018-09-09T15:46:10.029Z,375
2018-09-09T15:47:19.612Z,365
2018-09-09T15:48:28.660Z,360
2018-09-09T15:49:38.512Z,350
2018-09-09T15:50:47.824Z,350
2018-09-09T15:51:57.766Z,370
2018-09-09T15:53:07.630Z,415
2018-09-09T15:54:17.481Z,430
2018-09-09T15:55:26.805Z,490
2018-09-09T15:56:36.662Z,620
2018-09-09T15:57:46.635Z,980
2018-09-09T15:58:56.499Z,580
2018-09-09T16:00:05.823Z,545
2018-09-09T16:01:15.131Z,530
2018-09-09T16:02:24.978Z,525
2018-09-09T16:03:34.015Z,535
2018-09-09T16:04:43.329Z,575
2018-09-09T16:05:53.183Z,1525
2018-09-09T16:07:03.036Z,2440
2018-09-09T16:08:12.886Z,2535
2018-09-09T16:09:22.465Z,1280
2018-09-09T16:10:32.319Z,1655
2018-09-09T16:11:42.498Z,2410
2018-09-09T16:12:52.965Z,2440
2018-09-09T16:14:03.147Z,2410
2018-09-09T16:15:13.285Z,2300
2018-09-09T16:16:22.602Z,2135
2018-09-09T16:17:32.458Z,2275
2018-09-09T16:18:42.101Z,2250
2018-09-09T16:19:52.027Z,1955